createdAt,value
2022-11-05T00:01:53.323Z,0.90
2022-11-05T00:03:58.032Z,0.80
2022-11-05T00:06:02.750Z,0.80
2022-11-05T00:08:07.927Z,0.90
2022-11-05T00:10:17.965Z,0.90
2022-11-05T00:12:22.634Z,0.90
2022-11-05T00:14:27.440Z,0.70
2022-11-05T00:16:32.164Z,0.80
2022-11-05T00:18:37.383Z,0.90
2022-11-05T00:20:41.992Z,0.90
2022-11-05T00:22:46.758Z,0.70
2022-11-05T00:24:51.400Z,0.70
2022-11-05T00:26:56.031Z,0.70
2022-11-05T00:29:00.839Z,0.70
2022-11-05T00:31:07.982Z,0.90
2022-11-05T00:33:13.012Z,0.70
2022-11-05T00:35:22.112Z,0.90
2022-11-05T00:37:28.646Z,0.80
2022-11-05T00:39:33.263Z,0.80
2022-11-05T00:41:41.015Z,0.90
2022-11-05T00:43:45.673Z,0.80
2022-11-05T00:45:50.358Z,0.60
2022-11-05T00:47:55.062Z,0.90
2022-11-05T00:49:59.744Z,0.70
2022-11-05T00:52:04.749Z,0.80
2022-11-05T00:54:09.838Z,0.80
2022-11-05T00:56:14.536Z,0.70
2022-11-05T00:58:21.274Z,0.70
2022-11-05T01:00:27.486Z,0.80
2022-11-05T01:02:32.308Z,0.70
2022-11-05T01:04:37.017Z,0.70
2022-11-05T01:06:41.684Z,0.60
2022-11-05T01:08:47.001Z,0.70
2022-11-05T01:10:53.088Z,0.50
2022-11-05T01:12:58.433Z,0.60
2022-11-05T01:15:03.187Z,0.60
2022-11-05T01:17:07.865Z,0.80
2022-11-05T01:19:12.914Z,0.70
2022-11-05T01:21:17.561Z,0.90
2022-11-05T01:23:22.344Z,0.80
2022-11-05T01:25:27.392Z,0.90
2022-11-05T01:27:32.004Z,0.70
2022-11-05T01:29:36.756Z,0.90
2022-11-05T01:31:41.338Z,0.80
2022-11-05T01:33:46.040Z,1.00
2022-11-05T01:35:50.707Z,1.00
2022-11-05T01:37:55.380Z,1.00
2022-11-05T01:40:00.059Z,0.90
2022-11-05T01:42:05.414Z,1.00
2022-11-05T01:44:40.649Z,1.00
2022-11-05T01:46:46.588Z,0.90
2022-11-05T01:48:58.592Z,1.00
2022-11-05T01:51:08.635Z,1.10
2022-11-05T01:53:20.171Z,1.00
2022-11-05T01:55:27.901Z,1.20
2022-11-05T01:57:33.314Z,1.10
2022-11-05T01:59:42.376Z,1.00
2022-11-05T02:01:47.376Z,1.10
2022-11-05T02:03:55.350Z,1.00
2022-11-05T02:06:01.219Z,1.10
2022-11-05T02:08:07.744Z,0.90
2022-11-05T02:10:14.223Z,1.30
2022-11-05T02:12:20.841Z,0.80
2022-11-05T02:14:25.536Z,1.10
2022-11-05T02:16:40.433Z,1.00
2022-11-05T02:18:56.212Z,0.90
2022-11-05T02:21:20.735Z,1.10
2022-11-05T02:23:51.137Z,1.10
2022-11-05T02:26:20.515Z,1.00
2022-11-05T02:28:52.705Z,1.20
2022-11-05T02:31:01.833Z,1.10
2022-11-05T02:33:22.170Z,1.10
2022-11-05T02:35:40.902Z,1.20
2022-11-05T02:37:51.848Z,1.30
2022-11-05T02:40:06.389Z,1.40
2022-11-05T02:42:17.994Z,1.20
2022-11-05T02:44:29.267Z,1.20
2022-11-05T02:46:44.511Z,1.30
2022-11-05T02:48:55.958Z,1.10
2022-11-05T02:51:11.672Z,1.20
2022-11-05T02:53:19.995Z,1.20
2022-11-05T02:55:31.439Z,1.30
2022-11-05T02:57:37.723Z,1.40
2022-11-05T02:59:42.579Z,1.20
2022-11-05T03:01:48.591Z,1.40
2022-11-05T03:03:56.585Z,1.20
2022-11-05T03:06:18.486Z,1.40
2022-11-05T03:08:33.865Z,1.30
2022-11-05T03:10:45.414Z,1.20
2022-11-05T03:13:00.758Z,1.20
2022-11-05T03:15:15.751Z,1.10
2022-11-05T03:17:30.267Z,1.10
2022-11-05T03:19:40.521Z,1.30
2022-11-05T03:21:48.938Z,1.20
2022-11-05T03:23:56.584Z,1.30
2022-11-05T03:26:08.592Z,1.30
2022-11-05T03:28:14.921Z,1.40
2022-11-05T03:30:20.623Z,1.20
2022-11-05T03:32:30.373Z,1.10
2022-11-05T03:34:39.763Z,1.50
2022-11-05T03:36:48.637Z,1.20
2022-11-05T03:38:56.146Z,1.20
2022-11-05T03:41:05.137Z,1.70
2022-11-05T03:43:10.710Z,1.20
2022-11-05T03:45:20.338Z,1.30
2022-11-05T03:47:31.019Z,1.20
2022-11-05T03:49:40.170Z,1.40
2022-11-05T03:51:50.920Z,1.50
2022-11-05T03:53:58.756Z,1.50
2022-11-05T03:56:06.447Z,1.40
2022-11-05T03:58:13.024Z,1.70
2022-11-05T04:00:17.786Z,1.50
2022-11-05T04:02:25.517Z,1.70
2022-11-05T04:04:30.429Z,1.40
2022-11-05T04:06:35.369Z,1.60
2022-11-05T04:08:40.002Z,2.00
2022-11-05T04:10:44.653Z,1.90
2022-11-05T04:12:49.298Z,1.70
2022-11-05T04:14:53.891Z,2.00
2022-11-05T04:16:58.502Z,1.90
2022-11-05T04:19:03.318Z,2.00
2022-11-05T04:21:09.784Z,2.10
2022-11-05T04:23:14.396Z,1.80
2022-11-05T04:25:21.012Z,2.00
2022-11-05T04:27:25.788Z,2.00
2022-11-05T04:29:30.516Z,2.10
2022-11-05T04:31:35.253Z,1.80
2022-11-05T04:33:39.884Z,1.90
2022-11-05T04:35:46.647Z,1.90
2022-11-05T04:37:51.661Z,2.00
2022-11-05T04:39:56.296Z,1.80
2022-11-05T04:42:00.932Z,1.80
2022-11-05T04:44:05.593Z,2.20
2022-11-05T04:46:10.820Z,1.90
2022-11-05T04:48:15.387Z,2.10
2022-11-05T04:50:22.741Z,1.90
2022-11-05T04:52:27.374Z,1.70
2022-11-05T04:54:32.003Z,2.10
2022-11-05T04:56:36.720Z,2.00
2022-11-05T04:58:42.462Z,2.00
2022-11-05T05:00:49.192Z,2.10
2022-11-05T05:02:53.977Z,2.30
2022-11-05T05:04:58.658Z,2.30
2022-11-05T05:07:03.368Z,2.00
2022-11-05T05:09:08.064Z,2.30
2022-11-05T05:11:15.078Z,2.20
2022-11-05T05:13:19.678Z,2.00
2022-11-05T05:15:24.565Z,2.10
2022-11-05T05:17:29.300Z,1.90
2022-11-05T05:19:33.943Z,2.10
2022-11-05T05:21:38.629Z,2.10
2022-11-05T05:23:43.262Z,2.10
2022-11-05T05:25:47.897Z,2.20
2022-11-05T05:27:52.804Z,2.10
2022-11-05T05:29:57.860Z,2.30
2022-11-05T05:32:02.554Z,2.20
2022-11-05T05:34:08.085Z,2.00
2022-11-05T05:36:12.843Z,2.00
2022-11-05T05:38:17.710Z,2.10
2022-11-05T05:40:22.436Z,2.30
2022-11-05T05:42:27.169Z,2.20
2022-11-05T05:44:31.872Z,2.30
2022-11-05T05:46:36.524Z,2.60
2022-11-05T05:48:41.899Z,2.30
2022-11-05T05:50:46.489Z,2.30
2022-11-05T05:52:51.151Z,2.60
2022-11-05T05:54:55.806Z,2.60
2022-11-05T05:57:00.421Z,2.40
2022-11-05T05:59:06.535Z,2.30
2022-11-05T06:01:18.691Z,2.60
2022-11-05T06:03:24.142Z,2.30
2022-11-05T06:05:28.838Z,2.50
2022-11-05T06:07:37.271Z,2.60
2022-11-05T06:09:42.330Z,2.20
2022-11-05T06:11:47.007Z,2.50
2022-11-05T06:13:51.946Z,2.50
2022-11-05T06:16:01.338Z,2.60
2022-11-05T06:18:08.927Z,2.70
2022-11-05T06:20:14.074Z,2.40
2022-11-05T06:22:18.704Z,2.60
2022-11-05T06:24:23.545Z,2.80
2022-11-05T06:26:28.669Z,2.50
2022-11-05T06:28:33.912Z,2.60
2022-11-05T06:30:38.609Z,2.80
2022-11-05T06:32:43.318Z,2.70
2022-11-05T06:34:47.937Z,2.40
2022-11-05T06:36:52.536Z,3.00
2022-11-05T06:38:57.223Z,2.80
2022-11-05T06:41:07.171Z,2.60
2022-11-05T06:43:14.008Z,2.60
2022-11-05T06:45:19.301Z,2.50
2022-11-05T06:47:23.915Z,2.80
2022-11-05T06:49:28.598Z,2.40
2022-11-05T06:51:33.208Z,2.60
2022-11-05T06:53:37.812Z,3.00
2022-11-05T06:55:42.476Z,2.70
2022-11-05T06:57:47.118Z,2.50
2022-11-05T06:59:55.768Z,2.50
2022-11-05T07:02:03.711Z,2.60
2022-11-05T07:04:08.396Z,2.60
2022-11-05T07:06:13.088Z,2.70
2022-11-05T07:08:18.064Z,2.70
2022-11-05T07:10:22.949Z,2.80
2022-11-05T07:12:27.532Z,2.80
2022-11-05T07:14:32.157Z,3.20
2022-11-05T07:16:36.807Z,2.90
2022-11-05T07:18:44.201Z,2.80
2022-11-05T07:20:48.873Z,2.60
2022-11-05T07:22:59.686Z,2.70
2022-11-05T07:25:05.376Z,2.80
2022-11-05T07:27:10.014Z,2.70
2022-11-05T07:29:14.656Z,2.70
2022-11-05T07:31:19.338Z,2.80
2022-11-05T07:33:24.068Z,2.90
2022-11-05T07:35:28.929Z,3.10
2022-11-05T07:37:33.758Z,2.90
2022-11-05T07:39:38.623Z,3.00
2022-11-05T07:41:43.451Z,3.20
2022-11-05T07:43:48.100Z,3.00
2022-11-05T07:45:52.783Z,3.10
2022-11-05T07:48:00.149Z,2.80
2022-11-05T07:50:05.646Z,2.90
2022-11-05T07:52:10.279Z,2.70
2022-11-05T07:54:14.936Z,2.90
2022-11-05T07:56:19.841Z,2.90
2022-11-05T07:58:24.634Z,2.70
2022-11-05T08:00:30.249Z,2.80
2022-11-05T08:02:35.120Z,2.90
2022-11-05T08:04:39.937Z,2.90
2022-11-05T08:06:44.682Z,2.80
2022-11-05T08:08:49.642Z,3.00
2022-11-05T08:10:54.293Z,2.80
2022-11-05T08:12:59.117Z,2.80
2022-11-05T08:15:03.922Z,2.80
2022-11-05T08:17:08.519Z,3.00
2022-11-05T08:19:13.388Z,2.90
2022-11-05T08:21:18.164Z,2.80
2022-11-05T08:23:22.846Z,2.70
2022-11-05T08:25:27.920Z,3.10
2022-11-05T08:27:32.633Z,2.80
2022-11-05T08:29:37.258Z,2.70
2022-11-05T08:31:41.952Z,2.90
2022-11-05T08:33:46.811Z,2.80
2022-11-05T08:35:52.003Z,2.50
2022-11-05T08:37:59.204Z,3.10
2022-11-05T08:40:04.179Z,2.90
2022-11-05T08:42:09.094Z,2.60
2022-11-05T08:44:14.043Z,2.60
2022-11-05T08:46:18.717Z,3.10
2022-11-05T08:48:23.531Z,2.80
2022-11-05T08:50:28.659Z,2.80
2022-11-05T08:52:33.630Z,2.40
2022-11-05T08:54:38.397Z,2.80
2022-11-05T08:56:44.475Z,2.80
2022-11-05T08:58:49.194Z,2.70
2022-11-05T09:00:54.408Z,2.60
2022-11-05T09:03:02.168Z,3.00
2022-11-05T09:05:07.790Z,2.50
2022-11-05T09:07:13.527Z,2.80
2022-11-05T09:09:18.246Z,2.60
2022-11-05T09:11:33.054Z,2.90
2022-11-05T09:13:47.602Z,2.80
2022-11-05T09:15:53.080Z,2.80
2022-11-05T09:17:57.944Z,2.90
2022-11-05T09:20:03.974Z,2.80
2022-11-05T09:22:08.910Z,2.80
2022-11-05T09:24:13.584Z,3.30
2022-11-05T09:26:18.307Z,3.00
2022-11-05T09:28:23.010Z,3.30
2022-11-05T09:30:27.669Z,2.90
2022-11-05T09:32:33.593Z,2.70
2022-11-05T09:34:38.335Z,3.00
2022-11-05T09:36:43.122Z,3.10
2022-11-05T09:38:49.312Z,3.00
2022-11-05T09:41:00.429Z,3.20
2022-11-05T09:43:06.622Z,3.10
2022-11-05T09:45:17.418Z,3.10
2022-11-05T09:47:27.606Z,3.10
2022-11-05T09:49:38.589Z,3.00
2022-11-05T09:51:43.674Z,3.00
2022-11-05T09:53:49.561Z,3.20
2022-11-05T09:55:57.049Z,3.40
2022-11-05T09:58:04.877Z,3.20
2022-11-05T10:00:15.157Z,3.20
2022-11-05T10:02:24.155Z,3.10
2022-11-05T10:04:32.893Z,3.40
2022-11-05T10:06:43.316Z,3.50
2022-11-05T10:08:52.893Z,3.20
2022-11-05T10:11:03.862Z,3.30
2022-11-05T10:13:18.888Z,3.30
2022-11-05T10:15:28.049Z,3.10
2022-11-05T10:17:38.988Z,3.30
2022-11-05T10:19:48.974Z,3.70
2022-11-05T10:22:12.284Z,3.60
2022-11-05T10:24:18.638Z,3.70
2022-11-05T10:26:25.956Z,3.40
2022-11-05T10:28:32.430Z,3.70
2022-11-05T10:30:37.163Z,3.60
2022-11-05T10:32:43.891Z,3.60
2022-11-05T10:34:49.975Z,3.60
2022-11-05T10:36:54.824Z,3.70
2022-11-05T10:39:01.535Z,3.80
2022-11-05T10:41:23.674Z,3.90
2022-11-05T10:43:35.439Z,3.70
2022-11-05T10:45:50.156Z,4.30
2022-11-05T10:48:04.242Z,4.50
2022-11-05T10:50:12.886Z,4.20
2022-11-05T10:52:24.879Z,4.30
2022-11-05T10:54:33.869Z,4.30
2022-11-05T10:56:41.037Z,4.50
2022-11-05T10:58:56.107Z,4.30
2022-11-05T11:01:07.966Z,4.10
2022-11-05T11:03:34.483Z,4.40
2022-11-05T11:05:40.667Z,4.20
2022-11-05T11:07:52.472Z,4.20
2022-11-05T11:09:57.258Z,4.70
2022-11-05T11:12:05.339Z,4.50
2022-11-05T11:14:21.665Z,4.50
2022-11-05T11:16:28.331Z,3.80
2022-11-05T11:18:40.480Z,4.00
2022-11-05T11:20:46.531Z,4.30
2022-11-05T11:23:10.962Z,4.20
2022-11-05T11:25:27.318Z,4.50
2022-11-05T11:27:34.345Z,4.10
2022-11-05T11:29:48.057Z,4.50
2022-11-05T11:31:56.038Z,4.60
2022-11-05T11:34:04.183Z,4.50
2022-11-05T11:36:12.447Z,4.90
2022-11-05T11:38:18.088Z,5.10
2022-11-05T11:40:30.255Z,4.80
2022-11-05T11:42:40.226Z,4.80
2022-11-05T11:44:47.601Z,4.30
2022-11-05T11:46:55.104Z,5.00
2022-11-05T11:49:00.846Z,4.50
2022-11-05T11:51:19.519Z,5.10
2022-11-05T11:53:34.140Z,4.60
2022-11-05T11:55:38.852Z,5.00
2022-11-05T11:57:47.486Z,4.50
2022-11-05T12:00:08.220Z,5.10
2022-11-05T12:03:01.591Z,4.40
2022-11-05T12:05:28.237Z,4.70
2022-11-05T12:07:48.345Z,4.90
2022-11-05T12:10:07.046Z,4.90
2022-11-05T12:12:14.146Z,4.80
2022-11-05T12:14:31.774Z,4.60
2022-11-05T12:16:52.399Z,4.70
2022-11-05T12:19:09.150Z,5.50
2022-11-05T12:21:34.816Z,5.10
2022-11-05T12:24:02.448Z,5.20
2022-11-05T12:26:18.506Z,5.40
2022-11-05T12:28:57.855Z,4.90
2022-11-05T12:31:16.394Z,5.60
2022-11-05T12:33:31.890Z,5.30
2022-11-05T12:35:49.845Z,4.00
2022-11-05T12:38:05.854Z,4.60
2022-11-05T12:40:31.783Z,3.80
2022-11-05T12:42:51.919Z,2.90
2022-11-05T12:45:03.212Z,2.50
2022-11-05T12:47:21.907Z,2.40
2022-11-05T12:49:43.354Z,2.10
2022-11-05T12:52:06.107Z,2.20
2022-11-05T12:54:20.964Z,2.10
2022-11-05T12:56:33.615Z,1.90
2022-11-05T12:58:43.678Z,2.00
2022-11-05T13:00:54.796Z,1.80
2022-11-05T13:03:19.667Z,2.00
2022-11-05T13:05:33.716Z,1.70
2022-11-05T13:07:44.734Z,1.70
2022-11-05T13:09:54.355Z,1.80
2022-11-05T13:12:04.009Z,1.80
2022-11-05T13:14:14.362Z,1.90
2022-11-05T13:16:27.348Z,1.90
2022-11-05T13:18:50.479Z,1.90
2022-11-05T13:20:56.652Z,2.00
2022-11-05T13:23:06.700Z,2.10
2022-11-05T13:25:17.388Z,1.90
2022-11-05T13:27:41.692Z,1.80
2022-11-05T13:29:51.577Z,1.90
2022-11-05T13:32:02.864Z,1.80
2022-11-05T13:34:11.930Z,2.20
2022-11-05T13:36:21.707Z,2.00
2022-11-05T13:38:27.513Z,2.10
2022-11-05T13:40:43.510Z,2.10
2022-11-05T13:43:05.347Z,1.90
2022-11-05T13:45:33.028Z,2.20
2022-11-05T13:48:04.323Z,1.80
2022-11-05T13:50:41.641Z,1.90
2022-11-05T13:53:11.389Z,1.90
2022-11-05T13:55:39.111Z,2.00
2022-11-05T13:58:12.158Z,1.90
2022-11-05T14:00:21.168Z,2.00
2022-11-05T14:02:29.312Z,2.10
2022-11-05T14:04:38.047Z,1.90
2022-11-05T14:06:43.689Z,2.10
2022-11-05T14:08:49.175Z,2.10
2022-11-05T14:11:03.438Z,2.20
2022-11-05T14:13:24.223Z,2.20
2022-11-05T14:15:31.393Z,2.40
2022-11-05T14:17:56.992Z,3.80
2022-11-05T14:20:25.397Z,2.50
2022-11-05T14:22:41.559Z,2.40
2022-11-05T14:24:46.474Z,2.10
2022-11-05T14:27:40.554Z,2.10
2022-11-05T14:29:46.999Z,2.20
2022-11-05T14:32:10.776Z,2.40
2022-11-05T14:34:43.422Z,2.20
2022-11-05T14:37:22.343Z,2.30
2022-11-05T14:39:30.026Z,2.60
2022-11-05T14:41:53.611Z,2.60
2022-11-05T14:44:01.902Z,2.60
2022-11-05T14:46:07.840Z,2.70
2022-11-05T14:48:31.309Z,2.30
2022-11-05T14:50:42.537Z,2.40
2022-11-05T14:52:56.177Z,2.40
2022-11-05T14:55:01.573Z,2.70
2022-11-05T14:57:07.453Z,2.50
2022-11-05T14:59:34.219Z,2.60
2022-11-05T15:01:56.958Z,2.40
2022-11-05T15:04:26.348Z,2.40
2022-11-05T15:06:34.077Z,2.40
2022-11-05T15:08:53.654Z,2.50
2022-11-05T15:11:04.129Z,2.30
2022-11-05T15:13:26.718Z,2.30
2022-11-05T15:15:43.623Z,2.30
2022-11-05T15:17:52.750Z,2.00
2022-11-05T15:20:01.608Z,2.20
2022-11-05T15:22:12.674Z,2.10
2022-11-05T15:24:19.336Z,2.20
2022-11-05T15:26:27.979Z,2.00
2022-11-05T15:28:37.447Z,2.20
2022-11-05T15:30:57.589Z,1.90
2022-11-05T15:33:20.836Z,1.90
2022-11-05T15:35:28.655Z,1.90
2022-11-05T15:37:34.406Z,2.10
2022-11-05T15:39:44.052Z,2.10
2022-11-05T15:41:48.910Z,2.10
2022-11-05T15:43:53.633Z,2.30
2022-11-05T15:46:17.123Z,2.20
2022-11-05T15:48:22.316Z,2.20
2022-11-05T15:50:27.056Z,2.00
2022-11-05T15:52:38.253Z,2.20
2022-11-05T15:54:44.149Z,2.20
2022-11-05T15:56:52.791Z,2.50
2022-11-05T15:59:01.679Z,2.00
2022-11-05T16:01:06.622Z,2.10
2022-11-05T16:03:21.355Z,1.90
2022-11-05T16:05:30.797Z,2.00
2022-11-05T16:07:36.102Z,2.10
2022-11-05T16:09:43.797Z,2.10
2022-11-05T16:11:49.359Z,2.20
2022-11-05T16:14:12.546Z,2.10
2022-11-05T16:16:32.676Z,2.00
2022-11-05T16:18:41.449Z,2.40
2022-11-05T16:21:06.071Z,2.00
2022-11-05T16:23:39.993Z,2.20
2022-11-05T16:25:52.339Z,2.10
2022-11-05T16:27:59.033Z,2.00
2022-11-05T16:30:05.677Z,2.10
2022-11-05T16:32:19.524Z,2.00
2022-11-05T16:34:28.304Z,2.10
2022-11-05T16:36:35.848Z,2.10
2022-11-05T16:38:42.402Z,2.10
2022-11-05T16:40:50.680Z,2.20
2022-11-05T16:43:06.196Z,2.10
2022-11-05T16:45:13.302Z,2.30
2022-11-05T16:47:19.121Z,2.20
2022-11-05T16:49:25.171Z,2.50
2022-11-05T16:51:30.917Z,2.30
2022-11-05T16:53:37.447Z,2.40
2022-11-05T16:55:45.040Z,2.30
2022-11-05T16:57:54.101Z,2.30
2022-11-05T17:00:01.282Z,2.30
2022-11-05T17:02:10.653Z,2.10
2022-11-05T17:04:17.086Z,2.20
2022-11-05T17:06:23.573Z,2.20
2022-11-05T17:08:28.973Z,2.40
2022-11-05T17:10:34.779Z,2.40
2022-11-05T17:12:41.349Z,2.50
2022-11-05T17:14:51.464Z,2.10
2022-11-05T17:16:59.973Z,2.20
2022-11-05T17:19:13.776Z,2.50
2022-11-05T17:21:21.158Z,2.50
2022-11-05T17:23:27.804Z,2.40
2022-11-05T17:25:34.195Z,2.20
2022-11-05T17:27:44.116Z,2.70
2022-11-05T17:29:49.841Z,2.20
2022-11-05T17:31:55.496Z,2.30
2022-11-05T17:34:05.763Z,2.30
2022-11-05T17:36:15.574Z,2.30
2022-11-05T17:38:24.410Z,2.70
2022-11-05T17:40:33.501Z,2.50
2022-11-05T17:42:39.657Z,2.70
2022-11-05T17:44:46.000Z,2.80
2022-11-05T17:46:53.737Z,2.70
2022-11-05T17:49:04.922Z,3.00
2022-11-05T17:51:13.884Z,2.50
2022-11-05T17:53:20.262Z,2.60
2022-11-05T17:55:31.773Z,2.80
2022-11-05T17:57:37.692Z,2.70
2022-11-05T17:59:43.350Z,2.90
2022-11-05T18:01:48.756Z,3.40
2022-11-05T18:03:56.376Z,2.40
2022-11-05T18:06:05.283Z,3.30
2022-11-05T18:08:11.304Z,3.00
2022-11-05T18:10:18.746Z,3.50
2022-11-05T18:12:29.360Z,3.70
2022-11-05T18:14:35.670Z,4.20
2022-11-05T18:16:46.291Z,4.20
2022-11-05T18:18:51.727Z,4.20
2022-11-05T18:21:00.311Z,4.10
2022-11-05T18:23:06.584Z,3.90
2022-11-05T18:25:15.841Z,4.00
2022-11-05T18:27:21.510Z,4.70
2022-11-05T18:29:28.638Z,3.60
2022-11-05T18:31:35.629Z,4.30
2022-11-05T18:33:44.251Z,4.20
2022-11-05T18:35:52.758Z,4.40
2022-11-05T18:37:58.743Z,3.90
2022-11-05T18:40:05.688Z,3.70
2022-11-05T18:42:13.747Z,4.20
2022-11-05T18:44:19.508Z,4.60
2022-11-05T18:46:51.652Z,4.00
2022-11-05T18:48:55.393Z,5.10
2022-11-05T18:51:06.884Z,6.20
2022-11-05T18:53:13.095Z,6.00
2022-11-05T18:55:19.254Z,5.90
2022-11-05T18:57:27.873Z,4.70
2022-11-05T18:59:38.317Z,4.60
2022-11-05T19:01:44.761Z,4.80
2022-11-05T19:03:51.536Z,5.20
2022-11-05T19:06:01.874Z,4.10
2022-11-05T19:08:08.064Z,3.70
2022-11-05T19:10:15.387Z,3.40
2022-11-05T19:12:21.518Z,5.60
2022-11-05T19:14:27.733Z,4.80
2022-11-05T19:16:33.996Z,4.00
2022-11-05T19:18:41.658Z,4.50
2022-11-05T19:20:47.961Z,3.50
2022-11-05T19:22:53.801Z,3.80
2022-11-05T19:25:00.077Z,4.50
2022-11-05T19:27:07.136Z,3.70
2022-11-05T19:29:14.371Z,3.80
2022-11-05T19:31:23.962Z,4.40
2022-11-05T19:33:30.754Z,4.20
2022-11-05T19:35:41.709Z,4.00
2022-11-05T19:37:49.250Z,4.00
2022-11-05T19:39:58.806Z,3.80
2022-11-05T19:42:13.900Z,3.80
2022-11-05T19:44:20.686Z,4.70
2022-11-05T19:46:31.983Z,4.50
2022-11-05T19:48:39.448Z,4.70
2022-11-05T19:50:54.437Z,5.20
2022-11-05T19:53:01.148Z,4.60
2022-11-05T19:55:12.112Z,4.20
2022-11-05T19:57:18.473Z,4.40
2022-11-05T19:59:27.582Z,4.10
2022-11-05T20:01:34.381Z,4.40
2022-11-05T20:03:41.322Z,4.20
2022-11-05T20:05:49.031Z,4.00
2022-11-05T20:07:55.388Z,4.10
2022-11-05T20:10:00.988Z,3.80
2022-11-05T20:12:09.368Z,4.20
2022-11-05T20:14:14.829Z,4.10
2022-11-05T20:16:27.061Z,3.80
2022-11-05T20:18:33.510Z,4.00
2022-11-05T20:20:39.196Z,4.00
2022-11-05T20:22:45.813Z,3.60
2022-11-05T20:24:52.278Z,3.80
2022-11-05T20:27:01.981Z,3.70
2022-11-05T20:29:08.320Z,3.70
2022-11-05T20:31:16.855Z,3.70
2022-11-05T20:33:23.051Z,3.50
2022-11-05T20:35:28.531Z,3.90
2022-11-05T20:37:34.961Z,4.00
2022-11-05T20:39:42.791Z,3.80
2022-11-05T20:41:49.053Z,3.50
2022-11-05T20:43:57.328Z,3.40
2022-11-05T20:46:03.659Z,3.80
2022-11-05T20:48:10.513Z,3.80
2022-11-05T20:50:16.382Z,3.90
2022-11-05T20:52:22.209Z,3.70
2022-11-05T20:54:29.757Z,3.60
2022-11-05T20:56:36.529Z,3.60
2022-11-05T20:58:43.874Z,3.60
2022-11-05T21:00:55.485Z,3.60
2022-11-05T21:03:02.923Z,3.70
2022-11-05T21:05:10.198Z,3.90
2022-11-05T21:07:16.446Z,3.60
2022-11-05T21:09:23.483Z,3.50
2022-11-05T21:11:30.782Z,3.60
2022-11-05T21:13:36.772Z,3.80
2022-11-05T21:15:49.769Z,3.40
2022-11-05T21:17:57.708Z,3.70
2022-11-05T21:20:05.565Z,3.60
2022-11-05T21:22:12.560Z,3.60
2022-11-05T21:24:18.581Z,4.00
2022-11-05T21:26:24.603Z,4.20
2022-11-05T21:28:33.215Z,3.80
2022-11-05T21:30:43.169Z,4.10
2022-11-05T21:32:50.649Z,3.50
2022-11-05T21:34:56.226Z,3.50
2022-11-05T21:37:02.031Z,3.60
2022-11-05T21:39:13.396Z,3.50
2022-11-05T21:41:19.425Z,3.70
2022-11-05T21:43:24.835Z,3.90
2022-11-05T21:45:30.504Z,4.50
2022-11-05T21:47:40.319Z,4.00
2022-11-05T21:49:46.094Z,4.50
2022-11-05T21:51:55.382Z,4.10
2022-11-05T21:54:00.285Z,3.90
2022-11-05T21:56:15.145Z,3.70
2022-11-05T21:58:20.227Z,3.90
2022-11-05T22:00:25.891Z,3.50
2022-11-05T22:02:30.837Z,3.80
2022-11-05T22:04:38.762Z,4.20
2022-11-05T22:06:43.649Z,3.70
2022-11-05T22:08:48.479Z,4.00
2022-11-05T22:10:53.288Z,3.40
2022-11-05T22:13:00.620Z,4.00
2022-11-05T22:15:09.074Z,4.60
2022-11-05T22:17:14.532Z,3.80
2022-11-05T22:19:19.617Z,3.50
2022-11-05T22:21:24.438Z,3.70
2022-11-05T22:23:31.934Z,3.70
2022-11-05T22:25:36.876Z,3.80
2022-11-05T22:27:41.552Z,3.60
2022-11-05T22:29:46.391Z,3.90
2022-11-05T22:31:51.060Z,3.60
2022-11-05T22:33:55.771Z,3.40
2022-11-05T22:36:00.383Z,3.60
2022-11-05T22:38:05.051Z,3.50
2022-11-05T22:40:13.838Z,3.30
2022-11-05T22:42:18.563Z,3.40
2022-11-05T22:44:24.547Z,3.70
2022-11-05T22:46:29.774Z,4.00
2022-11-05T22:48:36.945Z,3.90
2022-11-05T22:50:41.893Z,4.10
2022-11-05T22:52:46.554Z,3.50
2022-11-05T22:54:51.199Z,4.20
2022-11-05T22:56:55.839Z,5.10
2022-11-05T22:59:01.345Z,5.00
2022-11-05T23:01:06.869Z,4.60
2022-11-05T23:03:11.619Z,4.70
2022-11-05T23:05:16.449Z,4.10
2022-11-05T23:07:27.023Z,4.40
2022-11-05T23:09:33.866Z,3.70
2022-11-05T23:11:41.290Z,4.30
2022-11-05T23:13:45.938Z,3.60
2022-11-05T23:15:50.548Z,3.50
2022-11-05T23:17:55.537Z,3.60
2022-11-05T23:20:00.487Z,3.60
2022-11-05T23:22:05.813Z,3.30
2022-11-05T23:24:11.642Z,4.00
2022-11-05T23:26:16.341Z,3.60
2022-11-05T23:28:21.282Z,3.50
2022-11-05T23:30:27.192Z,3.20
2022-11-05T23:32:33.550Z,3.40
2022-11-05T23:34:38.787Z,3.50
2022-11-05T23:36:44.169Z,3.20
2022-11-05T23:38:48.997Z,3.00
2022-11-05T23:40:53.785Z,3.70
2022-11-05T23:42:59.052Z,3.50
2022-11-05T23:45:04.236Z,3.50
2022-11-05T23:47:11.098Z,3.30
2022-11-05T23:49:16.276Z,3.00
2022-11-05T23:51:20.993Z,3.40
2022-11-05T23:53:26.448Z,3.30
2022-11-05T23:55:31.510Z,3.20
2022-11-05T23:57:36.191Z,3.40
2022-11-05T23:59:40.830Z,3.20
